ソウル/仁川 の空港の天気 - METARとTAF

仁川国際空港 ( RKSI / ICN ) - 韓国 仁川広域市 (ソウル特別市近郊)
飛行場実況気象(Metar)
観測時間08/14 06:00 KST (08/13 21:00 UTC)
風向・風速東北東 2m/s
視程3500m
天気現象もや
少しの雲 雲底高度 300m
全天の8割程度の雲 雲底高度 1070m
気温24℃
湿度94%
気圧1005hPa
METARRKSI 132100Z 06003KT 3500 BR FEW010 BKN035 24/23 Q1005 NOSIG
過去の天気等 Google飛行場航空写真 Wunderground天気予報

過去48時間のMETAR

飛行場予報(TAF)
発表時間: 8/14 02:00 KST (8/13 17:00 UTC)
予報対象時間: 14日3時 KST ~ 15日9時 KST
風向・風速東南東 3m/s
視程6000m
少しの雲 雲底高度 300m
全天の8割程度の雲 雲底高度 910m
14日11時 KST ~ 14日13時 KST に徐々に
風向・風速西 4m/s
視程10km以上
少しの雲 雲底高度 300m
全天の4割程度の雲 雲底高度 910m
14日17時 KST ~ 14日18時 KST に徐々に
風向・風速南 4m/s
少しの雲 雲底高度 300m
全天の8割程度の雲 雲底高度 910m
全天を覆う雲 雲底高度 2440m
14日18時 KST ~ 14日23時 KST に一時的に
視程6000m
天気現象弱い雨
14日23時 KST ~ 15日1時 KST に徐々に
風向・風速南 8m/s 瞬間風速 13m/s
15日3時 KST ~ 15日5時 KST に徐々に
風向・風速南 10m/s 瞬間風速 18m/s
TAF RKSI 131700Z 1318/1424 12006KT 6000 FEW010 BKN030 TN24/1320Z TX29/1405Z TN26/1420Z
BECMG 1402/1404 27008KT 9999 FEW010 SCT030
BECMG 1408/1409 19008KT FEW010 BKN030 OVC080
TEMPO 1409/1414 6000 -RA
BECMG 1414/1416 18015G25KT
BECMG 1418/1420 19020G35KT